createdAt,value
2023-05-10T00:03:57.430Z,8.92
2023-05-10T00:09:00.956Z,8.86
2023-05-10T00:14:04.668Z,8.81
2023-05-10T00:19:08.213Z,8.77
2023-05-10T00:24:11.570Z,8.73
2023-05-10T00:29:15.066Z,8.68
2023-05-10T00:34:31.989Z,8.66
2023-05-10T00:39:36.193Z,8.62
2023-05-10T00:44:45.506Z,8.59
2023-05-10T00:49:56.633Z,8.56
2023-05-10T00:55:01.515Z,8.52
2023-05-10T01:00:10.185Z,8.48
2023-05-10T01:05:14.323Z,8.45
2023-05-10T01:10:20.878Z,8.41
2023-05-10T01:15:24.717Z,8.36
2023-05-10T01:20:37.274Z,8.31
2023-05-10T01:25:52.780Z,8.26
2023-05-10T01:31:26.698Z,8.22
2023-05-10T01:36:59.842Z,8.16
2023-05-10T01:42:11.038Z,8.12
2023-05-10T01:47:21.486Z,8.05
2023-05-10T01:52:31.487Z,7.98
2023-05-10T01:57:40.682Z,7.91
2023-05-10T02:02:49.748Z,7.84
2023-05-10T02:07:54.361Z,7.76
2023-05-10T02:13:01.275Z,7.72
2023-05-10T02:18:06.842Z,7.67
2023-05-10T02:23:12.232Z,7.60
2023-05-10T02:28:18.276Z,7.55
2023-05-10T02:33:23.391Z,7.49
2023-05-10T02:38:28.169Z,7.44
2023-05-10T02:43:37.027Z,7.38
2023-05-10T02:48:40.628Z,7.34
2023-05-10T02:53:50.879Z,7.30
2023-05-10T02:58:54.502Z,7.26
2023-05-10T03:03:58.522Z,7.24
2023-05-10T03:09:04.400Z,7.23
2023-05-10T03:14:35.692Z,7.19
2023-05-10T03:19:52.781Z,7.17
2023-05-10T03:24:58.916Z,7.15
2023-05-10T03:30:04.143Z,7.12
2023-05-10T03:35:14.394Z,7.08
2023-05-10T03:40:18.478Z,7.07
2023-05-10T03:45:22.421Z,7.10
2023-05-10T03:50:26.077Z,7.13
2023-05-10T03:55:49.780Z,7.21
2023-05-10T04:00:53.576Z,7.31
2023-05-10T04:06:04.107Z,7.41
2023-05-10T04:11:12.266Z,7.55
2023-05-10T04:16:15.678Z,7.68
2023-05-10T04:21:19.526Z,7.81
2023-05-10T04:26:33.317Z,7.96
2023-05-10T04:31:37.407Z,8.14
2023-05-10T04:36:40.760Z,8.30
2023-05-10T04:41:44.087Z,8.42
2023-05-10T04:46:47.654Z,8.59
2023-05-10T04:51:54.036Z,8.83
2023-05-10T04:56:57.352Z,9.03
2023-05-10T05:02:00.892Z,9.33
2023-05-10T05:07:04.590Z,9.63
2023-05-10T05:12:07.910Z,9.91
2023-05-10T05:17:11.148Z,10.19
2023-05-10T05:22:14.441Z,10.54
2023-05-10T05:27:17.898Z,10.95
2023-05-10T05:32:21.329Z,11.61
2023-05-10T05:37:25.605Z,12.27
2023-05-10T05:42:28.946Z,12.68
2023-05-10T05:47:32.376Z,12.83
2023-05-10T05:52:38.358Z,12.74
2023-05-10T05:57:41.662Z,12.97
2023-05-10T06:02:45.252Z,13.52
2023-05-10T06:07:48.973Z,14.10
2023-05-10T06:12:52.231Z,14.11
2023-05-10T06:17:55.675Z,14.20
2023-05-10T06:22:59.787Z,14.31
2023-05-10T06:28:03.520Z,14.69
2023-05-10T06:33:07.007Z,15.05
2023-05-10T06:38:10.345Z,15.24
2023-05-10T06:43:13.759Z,15.31
2023-05-10T06:48:17.300Z,15.48
2023-05-10T06:53:20.839Z,15.94
2023-05-10T06:58:24.564Z,16.16
2023-05-10T07:03:27.915Z,16.41
2023-05-10T07:08:35.297Z,16.57
2023-05-10T07:13:40.281Z,16.56
2023-05-10T07:18:43.793Z,16.67
2023-05-10T07:23:47.340Z,16.77
2023-05-10T07:28:50.907Z,16.78
2023-05-10T07:33:54.400Z,16.77
2023-05-10T07:38:58.715Z,16.82
2023-05-10T07:44:02.138Z,16.84
2023-05-10T07:49:05.413Z,16.87
2023-05-10T07:54:08.985Z,16.87
2023-05-10T07:59:16.568Z,16.81
2023-05-10T08:04:20.527Z,16.76
2023-05-10T08:09:25.383Z,16.80
2023-05-10T08:14:30.314Z,16.83
2023-05-10T08:19:33.697Z,16.86
2023-05-10T08:24:39.466Z,16.91
2023-05-10T08:29:50.098Z,16.96
2023-05-10T08:34:53.852Z,17.01
2023-05-10T08:39:57.124Z,17.07
2023-05-10T08:45:01.456Z,17.14
2023-05-10T08:50:05.518Z,17.26
2023-05-10T08:55:09.422Z,17.26
2023-05-10T09:00:14.562Z,17.37
2023-05-10T09:05:19.362Z,17.36
2023-05-10T09:10:24.388Z,17.42
2023-05-10T09:15:27.731Z,17.58
2023-05-10T09:20:30.922Z,17.73
2023-05-10T09:25:34.886Z,17.74
2023-05-10T09:30:38.653Z,17.82
2023-05-10T09:35:43.225Z,17.80
2023-05-10T09:40:56.520Z,17.86
2023-05-10T09:45:59.903Z,18.02
2023-05-10T09:51:03.203Z,18.12
2023-05-10T09:56:06.567Z,18.15
2023-05-10T10:01:15.961Z,18.19
2023-05-10T10:06:29.443Z,18.17
2023-05-10T10:11:35.707Z,18.11
2023-05-10T10:16:48.523Z,18.02
2023-05-10T10:22:00.172Z,18.03
2023-05-10T10:27:34.908Z,18.08
2023-05-10T10:32:59.012Z,18.09
2023-05-10T10:38:02.857Z,18.17
2023-05-10T10:43:26.487Z,18.16
2023-05-10T10:48:30.150Z,18.18
2023-05-10T10:53:34.769Z,18.23
2023-05-10T10:58:40.414Z,18.31
2023-05-10T11:04:01.868Z,18.21
2023-05-10T11:09:13.542Z,18.30
2023-05-10T11:14:22.698Z,18.39
2023-05-10T11:19:29.182Z,18.52
2023-05-10T11:24:32.832Z,18.66
2023-05-10T11:29:36.213Z,18.67
2023-05-10T11:34:39.832Z,18.68
2023-05-10T11:39:48.592Z,18.73
2023-05-10T11:44:51.794Z,18.83
2023-05-10T11:49:55.200Z,18.77
2023-05-10T11:54:58.837Z,18.80
2023-05-10T12:00:04.768Z,18.89
2023-05-10T12:05:11.795Z,18.75
2023-05-10T12:10:34.148Z,18.58
2023-05-10T12:15:40.265Z,18.67
2023-05-10T12:20:43.709Z,18.69
2023-05-10T12:25:47.607Z,18.66
2023-05-10T12:30:55.352Z,18.77
2023-05-10T12:36:00.503Z,18.83
2023-05-10T12:41:08.818Z,18.91
2023-05-10T12:46:17.436Z,18.87
2023-05-10T12:51:23.160Z,18.94
2023-05-10T12:56:26.845Z,18.95
2023-05-10T13:01:30.321Z,18.91
2023-05-10T13:06:33.596Z,18.90
2023-05-10T13:11:37.617Z,18.89
2023-05-10T13:16:41.224Z,18.85
2023-05-10T13:21:47.806Z,18.85
2023-05-10T13:26:51.567Z,18.82
2023-05-10T13:31:55.093Z,18.87
2023-05-10T13:36:58.877Z,18.83
2023-05-10T13:42:02.409Z,18.82
2023-05-10T13:47:06.262Z,18.82
2023-05-10T13:52:11.142Z,18.92
2023-05-10T13:57:15.160Z,19.02
2023-05-10T14:02:18.904Z,19.00
2023-05-10T14:07:22.920Z,19.00
2023-05-10T14:12:27.496Z,18.98
2023-05-10T14:17:31.185Z,18.90
2023-05-10T14:22:34.634Z,18.89
2023-05-10T14:27:38.098Z,18.89
2023-05-10T14:32:41.351Z,18.90
2023-05-10T14:37:44.764Z,18.85
2023-05-10T14:42:48.060Z,18.78
2023-05-10T14:47:51.530Z,18.76
2023-05-10T14:53:03.940Z,18.78
2023-05-10T14:58:07.788Z,18.73
2023-05-10T15:03:11.494Z,18.66
2023-05-10T15:08:15.996Z,18.68
2023-05-10T15:13:20.080Z,18.75
2023-05-10T15:18:26.718Z,18.75
2023-05-10T15:23:31.018Z,18.70
2023-05-10T15:28:34.570Z,18.69
2023-05-10T15:33:39.456Z,18.61
2023-05-10T15:38:42.816Z,18.51
2023-05-10T15:43:46.802Z,18.54
2023-05-10T15:48:50.099Z,18.44
2023-05-10T15:54:05.913Z,18.30
2023-05-10T15:59:14.446Z,18.27
2023-05-10T16:04:18.433Z,18.29
2023-05-10T16:09:22.859Z,18.28
2023-05-10T16:14:26.807Z,18.17
2023-05-10T16:19:31.274Z,18.04
2023-05-10T16:24:35.047Z,17.96
2023-05-10T16:29:38.546Z,17.91
2023-05-10T16:34:42.057Z,17.89
2023-05-10T16:39:46.138Z,17.79
2023-05-10T16:44:49.735Z,17.71
2023-05-10T16:50:04.113Z,17.60
2023-05-10T16:55:07.973Z,17.55
2023-05-10T17:00:13.080Z,17.50
2023-05-10T17:05:16.857Z,17.46
2023-05-10T17:10:20.889Z,17.41
2023-05-10T17:15:24.571Z,17.31
2023-05-10T17:20:28.704Z,17.22
2023-05-10T17:25:32.344Z,17.09
2023-05-10T17:30:35.971Z,17.00
2023-05-10T17:35:39.617Z,16.90
2023-05-10T17:40:43.335Z,16.79
2023-05-10T17:45:49.727Z,16.67
2023-05-10T17:50:53.243Z,16.58
2023-05-10T17:56:01.649Z,16.45
2023-05-10T18:01:05.814Z,16.35
2023-05-10T18:06:09.600Z,16.24
2023-05-10T18:11:13.194Z,16.10
2023-05-10T18:16:16.992Z,15.95
2023-05-10T18:21:20.542Z,15.83
2023-05-10T18:26:23.974Z,15.71
2023-05-10T18:31:33.569Z,15.60
2023-05-10T18:36:58.743Z,15.45
2023-05-10T18:42:18.188Z,15.32
2023-05-10T18:47:28.425Z,15.20
2023-05-10T18:52:41.315Z,15.06
2023-05-10T18:57:46.165Z,14.92
2023-05-10T19:02:49.973Z,14.78
2023-05-10T19:07:53.381Z,14.68
2023-05-10T19:12:57.615Z,14.57
2023-05-10T19:18:22.844Z,14.48
2023-05-10T19:23:33.293Z,14.41
2023-05-10T19:28:37.684Z,14.34
2023-05-10T19:33:41.199Z,14.26
2023-05-10T19:38:58.371Z,14.20
2023-05-10T19:44:38.534Z,14.12
2023-05-10T19:49:42.112Z,14.06
2023-05-10T19:54:45.972Z,13.99
2023-05-10T19:59:49.597Z,13.93
2023-05-10T20:04:52.832Z,13.86
2023-05-10T20:09:56.363Z,13.78
2023-05-10T20:14:59.816Z,13.69
2023-05-10T20:20:04.044Z,13.62
2023-05-10T20:25:08.423Z,13.55
2023-05-10T20:30:12.292Z,13.51
2023-05-10T20:35:15.782Z,13.44
2023-05-10T20:40:19.807Z,13.34
2023-05-10T20:45:37.566Z,13.23
2023-05-10T20:51:05.933Z,13.11
2023-05-10T20:56:12.317Z,13.01
2023-05-10T21:01:19.052Z,12.93
2023-05-10T21:06:42.740Z,12.84
2023-05-10T21:11:58.075Z,12.73
2023-05-10T21:17:10.742Z,12.62
2023-05-10T21:22:14.141Z,12.54
2023-05-10T21:27:17.328Z,12.45
2023-05-10T21:32:20.807Z,12.34
2023-05-10T21:37:24.409Z,12.24
2023-05-10T21:42:27.977Z,12.12
2023-05-10T21:47:31.254Z,12.04
2023-05-10T21:52:34.712Z,11.94
2023-05-10T21:57:41.516Z,11.84
2023-05-10T22:02:45.204Z,11.74
2023-05-10T22:07:48.945Z,11.67
2023-05-10T22:12:52.918Z,11.62
2023-05-10T22:17:56.254Z,11.55
2023-05-10T22:22:59.705Z,11.47
2023-05-10T22:28:03.181Z,11.40
2023-05-10T22:33:09.367Z,11.33
2023-05-10T22:38:12.899Z,11.27
2023-05-10T22:43:17.196Z,11.23
2023-05-10T22:48:21.328Z,11.17
2023-05-10T22:53:24.735Z,11.11
2023-05-10T22:58:28.636Z,11.04
2023-05-10T23:03:32.151Z,10.99
2023-05-10T23:08:35.623Z,10.91
2023-05-10T23:13:39.005Z,10.85
2023-05-10T23:18:43.028Z,10.78
2023-05-10T23:23:47.006Z,10.70
2023-05-10T23:28:50.725Z,10.61
2023-05-10T23:33:55.015Z,10.55
2023-05-10T23:38:58.616Z,10.51
2023-05-10T23:44:04.974Z,10.47
2023-05-10T23:49:08.586Z,10.40
2023-05-10T23:54:14.455Z,10.32
2023-05-10T23:59:21.213Z,10.27
